Time;durP1;ratioP1;P1;durP2;ratioP2;P2;SDS_P1;SDS_P2;PMS_P1;PMS_P2;Temp;Humidity;BMP_temperature;BMP_pressure;BME280_temperature;BME280_humidity;BME280_pressure;Samples;Min_cycle;Max_cycle;Signal;HPM_P1;HPM_P2
2024/04/11 00:01:41;;;;;;;0.93;0.70;;;18.00;61.00;;;;;;6543719;21;20268;-84
2024/04/11 00:04:07;;;;;;;0.85;0.70;;;18.00;60.90;;;;;;6500762;21;20320;-84
2024/04/11 00:06:33;;;;;;;1.05;0.80;;;18.00;61.20;;;;;;6587251;21;20262;-83
2024/04/11 00:08:58;;;;;;;1.80;0.80;;;18.00;61.10;;;;;;6543260;21;20612;-83
2024/04/11 00:11:24;;;;;;;2.55;0.80;;;18.00;60.90;;;;;;6633179;21;20216;-84
2024/04/11 00:13:51;;;;;;;2.25;0.85;;;18.10;60.90;;;;;;6500447;21;20652;-83
2024/04/11 00:16:18;;;;;;;0.80;0.70;;;18.10;61.20;;;;;;6587423;21;20260;-84
2024/04/11 00:18:44;;;;;;;2.30;1.00;;;18.00;61.20;;;;;;6543858;21;20557;-84
2024/04/11 00:21:09;;;;;;;5.35;1.00;;;18.00;61.40;;;;;;6543514;21;20668;-83
2024/04/11 00:23:35;;;;;;;0.98;0.80;;;18.00;61.30;;;;;;6586560;21;20259;-83
2024/04/11 00:26:04;;;;;;;2.13;0.80;;;18.00;61.40;;;;;;6586966;21;20324;-83
2024/04/11 00:28:30;;;;;;;2.72;0.68;;;18.00;61.40;;;;;;6543949;21;20213;-83
2024/04/11 00:30:56;;;;;;;1.48;1.00;;;18.00;61.40;;;;;;6587091;21;20526;-84
2024/04/11 00:33:22;;;;;;;1.38;0.80;;;17.90;61.40;;;;;;6543080;21;20306;-83
2024/04/11 00:35:49;;;;;;;1.75;1.00;;;18.00;61.40;;;;;;6500554;21;20211;-84
2024/04/11 00:38:17;;;;;;;1.63;0.57;;;18.00;61.40;;;;;;6500587;21;20220;-83
2024/04/11 00:40:55;;;;;;;2.45;0.77;;;18.00;61.50;;;;;;6501086;21;20613;-84
2024/04/11 00:43:29;;;;;;;1.02;0.80;;;18.00;61.60;;;;;;6500393;21;20276;-84
2024/04/11 00:45:57;;;;;;;2.35;0.80;;;18.00;61.40;;;;;;6461657;21;20224;-83
2024/04/11 00:48:22;;;;;;;1.60;0.90;;;18.00;61.40;;;;;;6543757;21;20710;-83
2024/04/11 00:50:49;;;;;;;1.67;0.93;;;18.00;61.40;;;;;;6544517;21;20220;-84
2024/04/11 00:53:16;;;;;;;2.88;0.90;;;17.90;62.10;;;;;;6502758;21;20212;-84
2024/04/11 00:55:42;;;;;;;0.90;0.80;;;17.90;62.20;;;;;;6500779;21;20231;-84
2024/04/11 00:58:11;;;;;;;1.98;0.82;;;17.90;61.40;;;;;;6502678;21;20212;-83
2024/04/11 01:00:41;;;;;;;2.97;1.00;;;18.00;61.50;;;;;;6502549;21;20215;-84
2024/04/11 01:03:10;;;;;;;2.92;1.00;;;17.90;61.40;;;;;;6503702;21;20228;-84
2024/04/11 01:05:37;;;;;;;0.90;0.77;;;17.90;61.40;;;;;;6458933;21;20251;-83
2024/04/11 01:08:07;;;;;;;1.17;0.80;;;18.00;61.40;;;;;;6457808;21;20216;-83
2024/04/11 01:10:33;;;;;;;3.13;0.77;;;17.90;61.30;;;;;;6546385;21;20260;-84
2024/04/11 01:12:59;;;;;;;2.13;0.90;;;17.90;61.40;;;;;;6544986;21;20259;-83
2024/04/11 01:15:25;;;;;;;0.95;0.70;;;17.90;61.50;;;;;;6588925;21;20659;-83
2024/04/11 01:17:51;;;;;;;1.35;0.80;;;17.90;61.40;;;;;;6502144;21;20216;-83
2024/04/11 01:20:18;;;;;;;1.10;0.75;;;17.90;61.60;;;;;;6501512;21;20223;-83
2024/04/11 01:22:43;;;;;;;3.17;0.90;;;17.90;61.40;;;;;;6501718;21;20262;-83
2024/04/11 01:25:09;;;;;;;1.08;0.70;;;18.00;61.80;;;;;;6502266;21;20530;-83
2024/04/11 01:27:37;;;;;;;3.70;1.15;;;17.90;61.50;;;;;;6545202;21;20558;-84
2024/04/11 01:30:03;;;;;;;0.90;0.80;;;17.90;61.50;;;;;;6501214;21;20262;-84
2024/04/11 01:32:29;;;;;;;1.98;0.75;;;17.90;61.60;;;;;;6588392;21;20216;-84
2024/04/11 01:34:56;;;;;;;1.25;0.90;;;17.80;61.40;;;;;;6502228;21;20325;-83
2024/04/11 01:37:23;;;;;;;1.65;0.77;;;17.90;61.50;;;;;;6545829;21;20768;-83
2024/04/11 01:39:50;;;;;;;1.90;0.80;;;17.90;61.40;;;;;;6589233;21;20216;-84
2024/04/11 01:42:20;;;;;;;2.50;0.77;;;17.90;61.40;;;;;;6588543;21;20211;-83
2024/04/11 01:44:46;;;;;;;2.53;0.90;;;17.90;61.30;;;;;;6535558;21;20217;-84
2024/04/11 01:47:14;;;;;;;1.42;0.80;;;17.90;61.50;;;;;;6492026;21;20259;-84
2024/04/11 01:49:41;;;;;;;1.55;0.85;;;17.90;61.40;;;;;;6535056;21;20264;-83
2024/04/11 01:52:09;;;;;;;1.35;0.82;;;17.90;61.50;;;;;;6491968;21;20213;-83
2024/04/11 01:54:37;;;;;;;1.67;0.70;;;17.90;61.40;;;;;;6449193;21;20893;-83
2024/04/11 01:57:04;;;;;;;1.27;0.73;;;17.80;61.40;;;;;;6491208;21;20328;-83
2024/04/11 01:59:30;;;;;;;1.30;0.80;;;17.90;61.40;;;;;;6491734;21;20217;-82
2024/04/11 02:01:56;;;;;;;1.88;0.90;;;17.90;61.30;;;;;;6448107;21;20310;-84
2024/04/11 02:04:23;;;;;;;2.30;0.80;;;17.90;61.50;;;;;;6491691;21;20225;-83
2024/04/11 02:06:51;;;;;;;0.90;0.65;;;17.90;61.40;;;;;;6534020;21;20306;-83
2024/04/11 02:09:22;;;;;;;1.17;0.88;;;17.80;61.30;;;;;;6491606;21;20262;-83
2024/04/11 02:11:51;;;;;;;1.33;0.70;;;17.90;61.30;;;;;;6534913;21;20217;-83
2024/04/11 02:14:18;;;;;;;1.52;0.88;;;17.80;61.40;;;;;;6491982;21;20649;-83
2024/04/11 02:16:44;;;;;;;2.35;0.90;;;17.90;61.60;;;;;;6497160;21;20247;-83
2024/04/11 02:19:12;;;;;;;0.88;0.60;;;17.90;61.60;;;;;;6544541;21;20208;-84
2024/04/11 02:21:40;;;;;;;1.05;0.60;;;17.90;61.60;;;;;;6503220;21;20695;-83
2024/04/11 02:24:07;;;;;;;1.63;0.70;;;17.80;61.40;;;;;;6535730;21;20229;-84
2024/04/11 02:26:34;;;;;;;2.08;0.80;;;17.90;61.40;;;;;;6492912;21;20232;-85
2024/04/11 02:29:01;;;;;;;1.38;0.80;;;17.80;61.20;;;;;;6535532;21;20213;-84
2024/04/11 02:31:29;;;;;;;3.13;1.00;;;17.80;61.40;;;;;;6492379;21;20221;-83
2024/04/11 02:33:57;;;;;;;2.22;0.90;;;17.80;61.50;;;;;;6535496;21;20259;-84
2024/04/11 02:36:30;;;;;;;3.42;1.10;;;17.80;61.50;;;;;;6535408;21;20547;-84
2024/04/11 02:38:57;;;;;;;0.85;0.70;;;17.80;61.70;;;;;;6494418;21;20217;-83
2024/04/11 02:41:24;;;;;;;1.30;0.60;;;17.80;61.70;;;;;;6492462;21;20221;-83
2024/04/11 02:43:49;;;;;;;1.75;0.70;;;17.80;61.70;;;;;;6578963;21;20528;-84
2024/04/11 02:46:16;;;;;;;1.30;0.90;;;17.80;61.50;;;;;;6535453;21;20209;-84
2024/04/11 02:48:43;;;;;;;1.33;0.75;;;17.70;61.50;;;;;;6578898;21;20213;-85
2024/04/11 02:51:09;;;;;;;2.35;0.98;;;17.80;62.50;;;;;;6535283;21;20213;-83
2024/04/11 02:53:35;;;;;;;3.08;0.82;;;17.80;61.70;;;;;;6535363;21;20210;-83
2024/04/11 02:56:00;;;;;;;2.30;0.77;;;17.80;61.60;;;;;;6534047;21;20260;-83
2024/04/11 02:58:27;;;;;;;1.60;0.82;;;17.80;61.40;;;;;;6535213;21;20676;-83
2024/04/11 03:01:01;;;;;;;1.95;0.98;;;17.80;61.70;;;;;;6535272;21;20552;-83
2024/04/11 03:03:27;;;;;;;1.88;0.77;;;17.80;61.60;;;;;;6535479;21;20326;-83
2024/04/11 03:05:54;;;;;;;1.48;0.77;;;17.80;61.60;;;;;;6535204;21;20239;-84
2024/04/11 03:08:21;;;;;;;1.25;0.77;;;17.80;61.30;;;;;;6492481;21;20213;-82
2024/04/11 03:10:46;;;;;;;1.73;0.75;;;17.80;61.50;;;;;;6535356;21;20246;-83
2024/04/11 03:13:13;;;;;;;2.13;1.20;;;17.80;61.20;;;;;;6491890;21;20220;-83
2024/04/11 03:15:40;;;;;;;2.13;0.80;;;17.80;61.50;;;;;;6535017;21;20247;-83
2024/04/11 03:18:06;;;;;;;1.33;0.73;;;17.80;61.40;;;;;;6535416;21;20214;-82
2024/04/11 03:20:32;;;;;;;3.45;0.90;;;17.70;61.40;;;;;;6580634;21;20212;-83
2024/04/11 03:22:58;;;;;;;1.25;0.68;;;17.70;61.60;;;;;;6500969;21;20267;-83
2024/04/11 03:25:25;;;;;;;2.17;1.05;;;17.70;61.40;;;;;;6544020;21;21018;-84
2024/04/11 03:27:51;;;;;;;2.25;0.80;;;17.80;61.30;;;;;;6415720;21;20216;-83
2024/04/11 03:30:18;;;;;;;1.50;0.68;;;17.70;61.60;;;;;;6543620;21;20317;-83
2024/04/11 03:32:44;;;;;;;0.90;0.70;;;17.80;62.30;;;;;;6545230;21;20268;-83
2024/04/11 03:35:12;;;;;;;2.22;0.80;;;17.70;61.60;;;;;;6501456;21;20313;-83
2024/04/11 03:37:39;;;;;;;2.65;0.80;;;17.70;61.70;;;;;;6457981;21;20224;-84
2024/04/11 03:40:07;;;;;;;1.58;1.13;;;17.70;61.70;;;;;;6458323;21;20212;-83
2024/04/11 03:42:32;;;;;;;2.60;0.70;;;17.70;61.50;;;;;;6588228;21;20302;-83
2024/04/11 03:45:10;;;;;;;1.70;0.70;;;17.80;61.60;;;;;;6588931;21;20211;-83
2024/04/11 03:47:42;;;;;;;1.10;0.82;;;17.80;61.60;;;;;;6510329;21;20751;-83
2024/04/11 03:50:08;;;;;;;1.10;0.80;;;17.70;61.70;;;;;;6501562;21;20257;-83
2024/04/11 03:52:35;;;;;;;3.03;0.75;;;17.70;61.80;;;;;;6544962;21;20219;-83
2024/04/11 03:55:03;;;;;;;2.45;0.90;;;17.60;61.50;;;;;;6544269;21;20220;-83
2024/04/11 03:57:30;;;;;;;2.20;0.85;;;17.70;61.60;;;;;;6501219;21;20216;-84
2024/04/11 03:59:56;;;;;;;1.65;0.88;;;17.80;61.70;;;;;;6586916;21;20212;-84
2024/04/11 04:02:22;;;;;;;1.05;0.70;;;17.70;61.70;;;;;;6500773;21;20216;-83
2024/04/11 04:04:48;;;;;;;2.00;0.90;;;17.70;61.50;;;;;;6500634;21;20512;-83
2024/04/11 04:07:15;;;;;;;1.40;0.80;;;17.70;61.50;;;;;;6543076;21;20286;-83
2024/04/11 04:09:42;;;;;;;1.55;0.82;;;17.70;61.60;;;;;;6587116;21;20292;-84
2024/04/11 04:12:09;;;;;;;1.90;0.93;;;17.70;61.70;;;;;;6543535;21;20216;-82
2024/04/11 04:14:36;;;;;;;2.38;0.80;;;17.70;61.70;;;;;;6587249;21;20216;-84
2024/04/11 04:17:03;;;;;;;1.02;0.73;;;17.70;61.50;;;;;;6543633;21;20212;-83
2024/04/11 04:19:32;;;;;;;4.35;0.90;;;17.70;61.70;;;;;;6500337;21;20259;-84
2024/04/11 04:21:59;;;;;;;1.05;0.70;;;17.70;61.60;;;;;;6500767;21;20212;-83
2024/04/11 04:24:26;;;;;;;1.40;0.90;;;17.70;61.60;;;;;;6587124;21;20224;-83
2024/04/11 04:26:52;;;;;;;2.25;0.88;;;17.70;61.50;;;;;;6545586;21;20212;-83
2024/04/11 04:29:20;;;;;;;2.75;0.75;;;17.70;61.60;;;;;;6545342;21;20733;-84
2024/04/11 04:31:49;;;;;;;1.00;0.60;;;17.70;61.40;;;;;;6459098;21;20216;-83
2024/04/11 04:34:15;;;;;;;1.60;1.00;;;17.70;61.50;;;;;;6546586;21;20301;-84
2024/04/11 04:36:42;;;;;;;1.08;0.82;;;17.70;61.70;;;;;;6546251;21;20309;-83
2024/04/11 04:39:13;;;;;;;2.25;1.00;;;17.60;61.80;;;;;;6589169;21;20667;-83
2024/04/11 04:41:43;;;;;;;2.35;0.93;;;17.70;61.60;;;;;;6497536;21;20220;-84
2024/04/11 04:44:09;;;;;;;2.72;1.00;;;17.60;61.60;;;;;;6501951;21;20258;-84
2024/04/11 04:46:39;;;;;;;2.53;1.00;;;17.70;61.70;;;;;;6502489;21;20216;-83
2024/04/11 04:49:09;;;;;;;1.50;0.90;;;17.60;61.60;;;;;;6459623;21;20284;-84
2024/04/11 04:51:36;;;;;;;1.73;0.90;;;17.70;61.80;;;;;;6548150;21;20521;-83
2024/04/11 04:54:02;;;;;;;1.38;0.90;;;17.70;61.50;;;;;;6457687;21;20527;-84
2024/04/11 04:56:29;;;;;;;2.90;0.98;;;17.70;61.60;;;;;;6502296;21;20710;-83
2024/04/11 04:58:58;;;;;;;0.90;0.80;;;17.70;61.70;;;;;;6502891;21;20254;-84
2024/04/11 05:01:26;;;;;;;1.10;0.80;;;17.70;61.40;;;;;;6590140;21;20216;-83
2024/04/11 05:03:53;;;;;;;0.90;0.70;;;17.70;61.60;;;;;;6589592;21;20288;-83
2024/04/11 05:06:19;;;;;;;1.02;0.60;;;17.70;61.30;;;;;;6545066;21;20610;-83
2024/04/11 05:08:46;;;;;;;1.52;0.80;;;17.70;62.20;;;;;;6502115;21;20227;-84
2024/04/11 05:11:14;;;;;;;1.88;0.95;;;17.70;61.60;;;;;;6589141;21;20336;-82
2024/04/11 05:13:41;;;;;;;1.52;0.93;;;17.80;61.30;;;;;;6458794;21;20409;-83
2024/04/11 05:16:07;;;;;;;1.42;0.88;;;17.60;61.40;;;;;;6588582;21;20212;-83
2024/04/11 05:18:38;;;;;;;1.25;0.82;;;17.70;61.30;;;;;;6502172;21;20220;-84
2024/04/11 05:21:07;;;;;;;1.20;0.70;;;17.70;61.60;;;;;;6502746;21;20224;-82
2024/04/11 05:23:33;;;;;;;3.03;1.10;;;17.60;61.50;;;;;;6492941;21;20669;-83
2024/04/11 05:26:07;;;;;;;2.40;0.88;;;17.70;61.60;;;;;;6579878;21;20213;-83
2024/04/11 05:28:35;;;;;;;2.58;1.10;;;17.70;61.60;;;;;;6579775;21;20213;-83
2024/04/11 05:31:04;;;;;;;0.95;0.70;;;17.70;61.30;;;;;;6493384;21;20213;-83
2024/04/11 05:33:34;;;;;;;2.38;1.00;;;17.70;61.30;;;;;;6579702;21;20669;-83
2024/04/11 05:35:59;;;;;;;1.35;0.70;;;17.70;61.40;;;;;;6579543;21;20255;-83
2024/04/11 05:38:27;;;;;;;2.20;0.80;;;17.70;61.40;;;;;;6579095;21;20209;-84
2024/04/11 05:40:52;;;;;;;1.23;0.85;;;17.70;61.40;;;;;;6579430;21;20265;-83
2024/04/11 05:43:21;;;;;;;0.90;0.70;;;17.60;61.30;;;;;;6535727;21;20248;-83
2024/04/11 05:45:47;;;;;;;2.45;0.85;;;17.60;61.50;;;;;;6537006;21;20323;-84
2024/04/11 05:48:13;;;;;;;1.80;1.05;;;17.70;61.30;;;;;;6535405;21;20217;-83
2024/04/11 05:50:39;;;;;;;0.82;0.70;;;17.70;61.40;;;;;;6575994;21;20221;-83
2024/04/11 05:53:06;;;;;;;1.90;1.00;;;17.70;61.40;;;;;;6535945;21;20318;-83
2024/04/11 05:55:32;;;;;;;1.45;0.70;;;17.60;61.30;;;;;;6490178;21;20561;-83
2024/04/11 05:57:58;;;;;;;1.85;0.80;;;17.70;61.30;;;;;;6532559;21;20708;-83
2024/04/11 06:00:29;;;;;;;1.08;0.80;;;17.60;61.40;;;;;;6535326;21;20296;-83
2024/04/11 06:02:56;;;;;;;1.70;0.80;;;17.60;61.40;;;;;;6455471;21;20264;-83
2024/04/11 06:05:22;;;;;;;1.80;0.93;;;17.60;61.70;;;;;;6541016;21;20213;-84
2024/04/11 06:07:49;;;;;;;1.02;0.70;;;17.60;61.60;;;;;;6539035;21;20217;-84
2024/04/11 06:10:21;;;;;;;1.23;0.80;;;17.60;61.20;;;;;;6584114;21;20264;-83
2024/04/11 06:12:47;;;;;;;0.90;0.50;;;17.60;60.70;;;;;;6498302;21;20224;-83
2024/04/11 06:15:13;;;;;;;1.45;0.88;;;17.70;60.90;;;;;;6540653;21;20330;-84
2024/04/11 06:17:41;;;;;;;1.85;1.00;;;17.70;60.80;;;;;;6582968;21;20213;-83
2024/04/11 06:20:15;;;;;;;2.58;0.90;;;17.70;60.80;;;;;;6497513;21;20265;-84
2024/04/11 06:22:49;;;;;;;1.33;0.80;;;17.80;60.20;;;;;;6598236;21;20710;-84
2024/04/11 06:25:15;;;;;;;2.97;1.00;;;17.80;60.10;;;;;;6513809;21;20586;-86
2024/04/11 06:27:47;;;;;;;2.85;1.02;;;17.80;59.90;;;;;;6594442;21;20215;-86
2024/04/11 06:30:14;;;;;;;0.90;0.70;;;17.80;60.10;;;;;;6591399;21;20216;-83
2024/04/11 06:32:41;;;;;;;1.50;0.80;;;17.80;59.70;;;;;;6589731;21;20216;-83
2024/04/11 06:35:13;;;;;;;1.23;0.85;;;17.90;60.20;;;;;;6551064;21;20276;-84
2024/04/11 06:37:44;;;;;;;1.33;0.82;;;17.90;61.40;;;;;;6506187;21;20283;-83
2024/04/11 06:40:12;;;;;;;0.80;0.80;;;17.80;60.40;;;;;;6551716;21;20627;-85
2024/04/11 06:42:46;;;;;;;1.55;0.85;;;17.80;60.30;;;;;;6513581;21;20672;-84
2024/04/11 06:45:23;;;;;;;1.88;1.10;;;17.90;60.20;;;;;;6561229;21;20314;-84
2024/04/11 06:47:50;;;;;;;2.35;0.90;;;17.90;59.90;;;;;;6473616;21;20216;-84
2024/04/11 06:50:21;;;;;;;1.48;0.90;;;17.90;60.00;;;;;;6510147;21;20216;-84
2024/04/11 06:52:51;;;;;;;1.77;1.10;;;17.90;60.00;;;;;;6511914;21;20268;-82
2024/04/11 06:55:20;;;;;;;1.98;1.20;;;17.90;59.80;;;;;;6488162;22;20268;-87
2024/04/11 06:57:48;;;;;;;2.05;1.27;;;17.90;59.80;;;;;;6404979;22;20681;-86
2024/04/11 07:02:55;;;;;;;1.63;1.10;;;17.90;59.80;;;;;;6487558;22;20256;-85
2024/04/11 07:05:21;;;;;;;1.90;1.10;;;17.90;59.80;;;;;;6401416;22;20218;-85
2024/04/11 07:07:54;;;;;;;2.17;1.20;;;17.90;60.00;;;;;;6405983;22;20223;-84
2024/04/11 07:10:26;;;;;;;1.92;1.20;;;17.80;60.30;;;;;;6411045;22;20226;-84
2024/04/11 07:12:53;;;;;;;1.88;0.90;;;17.80;60.70;;;;;;6487508;22;20229;-83
2024/04/11 07:15:23;;;;;;;1.20;1.10;;;17.80;60.00;;;;;;6442105;22;20222;-83
2024/04/11 07:20:26;;;;;;;1.75;1.35;;;17.90;59.90;;;;;;6451537;22;20213;-85
2024/04/11 07:22:54;;;;;;;1.35;1.10;;;17.90;59.70;;;;;;6427627;22;20223;-87
2024/04/11 07:25:22;;;;;;;1.92;1.20;;;17.90;59.80;;;;;;6409049;21;20259;-83
2024/04/11 07:27:49;;;;;;;1.55;1.35;;;17.90;59.90;;;;;;6460804;21;20327;-85
2024/04/11 07:30:17;;;;;;;1.95;1.42;;;17.90;60.00;;;;;;6499704;21;20225;-83
2024/04/11 07:32:45;;;;;;;2.35;1.40;;;18.00;59.30;;;;;;6500713;21;20273;-85
2024/04/11 07:35:14;;;;;;;1.40;1.20;;;18.00;59.40;;;;;;6503860;21;20209;-85
2024/04/11 07:37:42;;;;;;;4.28;1.40;;;18.10;58.90;;;;;;6457595;21;20225;-85
2024/04/11 07:40:27;;;;;;;2.03;1.30;;;18.00;59.70;;;;;;6463427;21;20205;-84
2024/04/11 07:42:55;;;;;;;0.90;0.90;;;18.00;59.50;;;;;;6473995;21;20304;-84
2024/04/11 07:45:25;;;;;;;2.55;1.33;;;18.00;59.60;;;;;;6458952;21;20599;-87
2024/04/11 07:47:58;;;;;;;1.50;1.20;;;18.00;59.70;;;;;;6539213;21;20213;-84
2024/04/11 07:50:26;;;;;;;2.70;1.33;;;18.10;59.80;;;;;;6499215;21;20209;-84
2024/04/11 07:52:52;;;;;;;2.25;1.63;;;17.90;60.10;;;;;;6494268;21;20213;-84
2024/04/11 07:55:20;;;;;;;1.42;1.30;;;18.00;60.20;;;;;;6493783;21;20611;-84
2024/04/11 07:57:46;;;;;;;2.25;1.38;;;18.00;59.80;;;;;;6492430;21;20538;-85
2024/04/11 08:00:20;;;;;;;1.50;1.05;;;18.00;59.70;;;;;;6537271;21;20540;-84
2024/04/11 08:02:49;;;;;;;1.40;1.20;;;18.00;60.30;;;;;;6499334;21;20220;-85
2024/04/11 08:05:15;;;;;;;1.52;1.05;;;18.00;60.10;;;;;;6538335;21;20213;-84
2024/04/11 08:07:49;;;;;;;1.73;0.90;;;18.00;59.90;;;;;;6535779;21;20214;-86
2024/04/11 08:10:20;;;;;;;1.67;1.10;;;18.00;59.90;;;;;;6416325;21;20268;-85
2024/04/11 08:12:47;;;;;;;1.27;1.17;;;18.10;59.60;;;;;;6452802;21;20302;-86
2024/04/11 08:15:14;;;;;;;2.67;0.98;;;18.00;59.80;;;;;;6452520;21;20252;-86
2024/04/11 08:17:42;;;;;;;1.80;1.17;;;18.10;60.00;;;;;;6536934;21;20236;-86
2024/04/11 08:20:13;;;;;;;1.20;1.10;;;18.00;59.80;;;;;;6493057;21;20259;-83
2024/04/11 08:22:49;;;;;;;2.25;1.33;;;18.10;59.60;;;;;;6539500;21;20268;-87
2024/04/11 08:25:15;;;;;;;1.70;1.05;;;18.20;59.80;;;;;;6551076;21;20549;-86
2024/04/11 08:27:43;;;;;;;2.47;1.15;;;18.20;59.70;;;;;;6589807;21;20354;-85
2024/04/11 08:30:15;;;;;;;1.77;1.20;;;18.10;59.50;;;;;;6503323;21;20236;-86
2024/04/11 08:32:48;;;;;;;1.23;1.00;;;18.10;59.40;;;;;;6549984;21;20301;-85
2024/04/11 08:35:54;;;;;;;;;;;;;;;;;;;;;
2024/04/11 08:38:33;;;;;;;2.33;1.30;;;18.10;59.20;;;;;;6539608;21;20262;-86
2024/04/11 08:41:00;;;;;;;2.95;1.27;;;18.20;59.20;;;;;;6553368;21;20215;-84
2024/04/11 08:43:28;;;;;;;1.80;1.27;;;18.10;59.60;;;;;;6547667;21;20258;-84
2024/04/11 08:45:57;;;;;;;2.72;1.17;;;18.20;59.70;;;;;;6506218;21;20247;-86
2024/04/11 08:48:24;;;;;;;5.35;1.58;;;18.10;59.90;;;;;;6507146;21;20223;-86
2024/04/11 08:50:52;;;;;;;2.40;1.40;;;18.10;59.80;;;;;;6546764;21;20228;-87
2024/04/11 08:53:18;;;;;;;5.10;1.17;;;18.10;59.90;;;;;;6549259;21;20258;-85
2024/04/11 08:55:44;;;;;;;5.75;1.23;;;18.10;60.00;;;;;;6546909;21;20224;-84
2024/04/11 08:58:10;;;;;;;9.80;1.60;;;18.10;59.80;;;;;;6550856;21;20309;-85
2024/04/11 09:00:42;;;;;;;10.93;1.77;;;18.10;60.00;;;;;;6508311;21;20216;-87
2024/04/11 09:03:15;;;;;;;9.75;1.50;;;18.10;59.90;;;;;;6461161;21;20255;-85
2024/04/11 09:05:47;;;;;;;8.98;1.73;;;18.20;59.90;;;;;;6548236;21;20247;-85
2024/04/11 09:08:13;;;;;;;6.75;1.38;;;18.20;59.90;;;;;;6507640;21;20262;-86
2024/04/11 09:10:43;;;;;;;9.80;1.67;;;18.20;58.80;;;;;;6400072;22;20278;-85
2024/04/11 09:13:15;;;;;;;12.70;1.95;;;18.30;59.10;;;;;;6400789;22;20223;-87
2024/04/11 09:15:46;;;;;;;8.23;1.58;;;18.30;59.70;;;;;;6397621;22;20219;-84
2024/04/11 09:18:24;;;;;;;9.75;1.50;;;18.30;59.80;;;;;;6441308;22;20219;-85
2024/04/11 09:21:07;;;;;;;2.63;1.48;;;18.30;59.80;;;;;;6443334;22;20219;-84
2024/04/11 09:23:39;;;;;;;6.80;1.48;;;18.30;59.70;;;;;;6443889;22;20307;-85
2024/04/11 09:26:04;;;;;;;5.82;1.20;;;18.20;59.90;;;;;;6400251;22;20618;-85
2024/04/11 09:28:30;;;;;;;7.03;1.20;;;18.30;59.60;;;;;;6432745;22;20217;-86
2024/04/11 09:30:58;;;;;;;5.03;1.08;;;18.30;59.70;;;;;;6395915;22;20692;-83
2024/04/11 09:33:24;;;;;;;3.85;1.20;;;18.20;59.80;;;;;;6346064;22;20272;-83
2024/04/11 09:35:58;;;;;;;5.43;1.50;;;18.30;59.70;;;;;;6396781;22;20619;-85
2024/04/11 09:38:24;;;;;;;4.57;1.10;;;18.30;59.80;;;;;;6354267;22;20647;-82
2024/04/11 09:40:55;;;;;;;3.70;1.05;;;18.30;59.50;;;;;;6503304;21;20212;-84
2024/04/11 09:43:27;;;;;;;6.57;1.08;;;18.30;59.60;;;;;;6510223;21;20239;-84
2024/04/11 09:45:58;;;;;;;3.10;1.17;;;18.40;59.60;;;;;;6455773;22;20221;-81
2024/04/11 09:48:25;;;;;;;3.30;1.08;;;18.30;59.40;;;;;;6409780;22;20335;-83
2024/04/11 09:50:56;;;;;;;4.88;0.90;;;18.30;59.40;;;;;;6449580;22;20270;-83
2024/04/11 09:53:27;;;;;;;3.45;1.10;;;18.40;59.20;;;;;;6409676;22;20557;-84
2024/04/11 09:56:11;;;;;;;5.90;1.35;;;18.40;59.50;;;;;;6494116;22;20269;-87
2024/04/11 09:58:45;;;;;;;3.15;1.05;;;18.30;59.50;;;;;;6384288;22;20230;-85
2024/04/11 10:01:37;;;;;;;4.93;1.30;;;18.40;59.60;;;;;;6329483;22;20265;-84
2024/04/11 10:06:45;;;;;;;3.38;1.23;;;18.40;59.50;;;;;;6490077;22;20225;-83
2024/04/11 10:09:17;;;;;;;4.13;1.15;;;18.30;59.60;;;;;;6488943;22;20218;-86
2024/04/11 10:12:00;;;;;;;3.08;1.40;;;18.30;59.30;;;;;;6452667;22;20218;-88
2024/04/11 10:14:31;;;;;;;2.28;1.10;;;18.40;59.60;;;;;;6453502;22;20226;-86
2024/04/11 10:17:02;;;;;;;2.58;1.40;;;18.40;59.40;;;;;;6507455;21;20212;-85
2024/04/11 10:19:39;;;;;;;3.75;1.00;;;18.50;59.10;;;;;;6556491;21;20262;-87
2024/04/11 10:22:19;;;;;;;;;;;;;;;;;;;;;
2024/04/11 10:25:07;;;;;;;4.35;1.27;;;18.60;59.20;;;;;;6350909;22;20232;-85
2024/04/11 10:28:48;;;;;;;;;;;;;;;;;;;;;
2024/04/11 13:42:59;;;;;;;2.30;1.00;;;18.80;60.50;;;;;;6440515;22;20254;-84
2024/04/11 13:45:25;;;;;;;6.05;1.00;;;18.80;60.80;;;;;;6436545;22;20215;-84
2024/04/11 13:47:58;;;;;;;2.65;0.98;;;18.80;60.50;;;;;;6393588;22;20222;-83
2024/04/11 13:50:35;;;;;;;5.03;1.00;;;18.80;60.70;;;;;;6393850;22;20267;-82
2024/04/11 13:53:05;;;;;;;3.17;1.10;;;18.80;60.70;;;;;;6437429;22;20253;-82
2024/04/11 13:55:32;;;;;;;4.00;0.95;;;18.70;61.10;;;;;;6392492;22;20622;-82
2024/04/11 13:57:59;;;;;;;1.85;1.00;;;18.80;61.20;;;;;;6433560;22;20615;-82
2024/04/11 14:00:36;;;;;;;2.35;1.00;;;18.80;61.20;;;;;;6432900;22;20216;-83
2024/04/11 14:05:59;;;;;;;2.95;1.10;;;18.80;61.30;;;;;;6441323;22;20359;-85
2024/04/11 14:08:38;;;;;;;;;;;;;;;;;;;;;
2024/04/11 14:11:44;;;;;;;2.47;0.80;;;18.80;61.20;;;;;;6393517;22;20258;-85
2024/04/11 14:14:13;;;;;;;5.50;1.02;;;18.80;61.00;;;;;;6272018;22;20387;-84
2024/04/11 14:16:52;;;;;;;4.18;1.20;;;18.80;61.10;;;;;;6296726;22;20686;-84
2024/04/11 14:19:39;;;;;;;2.05;0.80;;;18.90;61.20;;;;;;6296558;22;20217;-85
2024/04/11 14:22:29;;;;;;;3.80;1.15;;;18.80;62.20;;;;;;6268053;22;20237;-84
2024/04/11 14:27:38;;;;;;;5.93;1.10;;;18.80;61.80;;;;;;6344109;22;20268;-84
2024/04/11 14:30:11;;;;;;;1.77;0.70;;;18.80;61.80;;;;;;6258093;22;20262;-84
2024/04/11 14:36:27;;;;;;;2.65;1.00;;;18.90;61.90;;;;;;6341687;22;20221;-86
2024/04/11 14:38:32;;;;;;;3.30;1.05;;;18.70;62.00;;;;;;6237234;22;20280;-86
2024/04/11 14:41:04;;;;;;;3.55;0.90;;;18.80;62.20;;;;;;6123436;23;20721;-85
2024/04/11 14:43:49;;;;;;;;;;;;;;;;;;;;;
2024/04/11 14:46:48;;;;;;;3.63;1.05;;;18.80;62.10;;;;;;6197270;22;20229;-90
2024/04/11 14:49:44;;;;;;;;;;;;;;;;;;;;;
2024/04/11 14:52:48;;;;;;;;;;;;;;;;;;;;;
2024/04/11 14:56:28;;;;;;;;;;;;;;;;;;;;;
2024/04/11 14:59:27;;;;;;;3.53;1.25;;;18.80;62.20;;;;;;6124660;23;20230;-89
2024/04/11 15:01:56;;;;;;;4.72;1.05;;;18.80;62.50;;;;;;6109116;23;20265;-89
2024/04/11 15:04:42;;;;;;;7.38;1.27;;;18.70;62.70;;;;;;6144648;23;20234;-89
2024/04/11 15:07:17;;;;;;;3.42;1.10;;;18.70;62.80;;;;;;6146643;23;20339;-88
2024/04/11 15:09:44;;;;;;;3.63;0.90;;;18.80;62.70;;;;;;6183130;23;20237;-88
2024/04/11 15:12:13;;;;;;;4.60;0.95;;;18.80;62.70;;;;;;6151062;23;20268;-89
2024/04/11 15:15:22;;;;;;;5.05;1.00;;;18.70;62.70;;;;;;6107381;23;20227;-88
2024/04/11 15:17:57;;;;;;;2.33;0.93;;;18.80;63.60;;;;;;6094876;23;20235;-88
2024/04/11 15:23:19;;;;;;;5.88;1.10;;;18.90;62.80;;;;;;6015139;23;20229;-86
2024/04/11 15:26:12;;;;;;;2.17;0.80;;;18.90;62.60;;;;;;6046245;23;20641;-86
2024/04/11 15:28:47;;;;;;;2.30;0.88;;;18.90;62.80;;;;;;5970948;23;20234;-86
2024/04/11 15:31:29;;;;;;;0.88;0.80;;;18.90;62.90;;;;;;5900770;24;20261;-86
2024/04/11 15:34:07;;;;;;;3.50;0.95;;;18.90;62.90;;;;;;5967684;23;20281;-88
2024/04/11 15:36:40;;;;;;;6.15;1.20;;;18.80;62.80;;;;;;5971381;24;20242;-86
2024/04/11 15:39:28;;;;;;;2.40;1.00;;;18.90;62.80;;;;;;6028166;23;20334;-86
2024/04/11 15:42:00;;;;;;;3.00;0.85;;;18.90;62.80;;;;;;6093444;23;20418;-86
2024/04/11 15:45:28;;;;;;;;;;;;;;;;;;;;;
2024/04/11 19:45:02;;;;;;;0.73;0.60;;;18.70;66.20;;;;;;6704909;21;20626;-85
2024/04/11 19:47:30;;;;;;;1.35;0.80;;;18.80;66.00;;;;;;6496159;21;20217;-86
2024/04/11 19:50:00;;;;;;;1.73;0.63;;;18.70;66.40;;;;;;6493434;21;20301;-85
2024/04/11 19:52:29;;;;;;;1.15;0.80;;;18.80;66.20;;;;;;6452596;21;20243;-85
2024/04/11 19:55:08;;;;;;;3.25;0.80;;;18.80;66.10;;;;;;6450431;21;20251;-85
2024/04/11 19:57:47;;;;;;;1.13;0.80;;;18.70;66.30;;;;;;6456560;21;20243;-85
2024/04/11 20:08:28;;;;;;;2.00;0.85;;;18.60;67.50;;;;;;6501304;21;20213;-85
2024/04/11 20:11:02;;;;;;;1.83;0.80;;;18.60;67.60;;;;;;6450519;21;20221;-85
2024/04/11 20:16:17;;;;;;;1.10;0.90;;;18.60;67.70;;;;;;6426582;21;20269;-85
2024/04/11 20:18:44;;;;;;;3.22;0.90;;;18.60;67.80;;;;;;6492980;21;20232;-85
2024/04/11 20:21:11;;;;;;;0.95;0.70;;;18.60;67.90;;;;;;6449286;21;20270;-85
2024/04/11 20:23:38;;;;;;;1.05;0.68;;;18.60;68.00;;;;;;6534569;21;20314;-85
2024/04/11 20:26:05;;;;;;;2.10;1.02;;;18.50;68.10;;;;;;6449958;21;20217;-85
2024/04/11 20:28:31;;;;;;;1.10;0.82;;;18.50;68.10;;;;;;6491832;21;20260;-85
2024/04/11 20:31:00;;;;;;;1.00;0.77;;;18.50;68.10;;;;;;6449253;21;20311;-85
2024/04/11 20:33:31;;;;;;;1.67;0.80;;;18.50;68.10;;;;;;6451869;21;20268;-85
2024/04/11 20:36:09;;;;;;;1.38;0.77;;;18.50;68.20;;;;;;6409516;21;20221;-85
2024/04/11 20:38:37;;;;;;;2.38;0.90;;;18.50;68.30;;;;;;6495692;21;20221;-85
2024/04/11 20:41:03;;;;;;;0.80;0.80;;;18.50;68.00;;;;;;6534031;21;20221;-85
2024/04/11 20:43:37;;;;;;;1.75;0.80;;;18.50;68.20;;;;;;6491829;21;20307;-86
2024/04/11 20:46:06;;;;;;;1.33;0.85;;;18.50;68.00;;;;;;6496608;21;20229;-85
2024/04/11 20:48:42;;;;;;;1.65;0.90;;;18.50;68.10;;;;;;6451359;21;20638;-85
2024/04/11 21:34:06;;;;;;;1.60;0.90;;;18.40;68.00;;;;;;6543167;21;20318;-85
2024/04/11 21:36:32;;;;;;;1.65;0.80;;;18.40;68.20;;;;;;6451325;21;20217;-85
2024/04/11 21:39:00;;;;;;;1.30;0.90;;;18.40;68.10;;;;;;6493042;21;20385;-85